Time;durP1;ratioP1;P1;durP2;ratioP2;P2;SDS_P1;SDS_P2;PMS_P1;PMS_P2;Temp;Humidity;BMP_temperature;BMP_pressure;BME280_temperature;BME280_humidity;BME280_pressure;Samples;Min_cycle;Max_cycle;Signal;HPM_P1;HPM_P2
2022/01/01 00:00:08;;;;;;;5.28;3.92;;;;;;;9.95;100.00;98805.33;1727904;83;21010;-41
2022/01/01 00:02:35;;;;;;;5.28;4.10;;;;;;;9.97;100.00;98806.07;1727907;83;21002;-40
2022/01/01 00:05:01;;;;;;;5.30;3.90;;;;;;;9.95;100.00;98809.27;1728026;83;21053;-41
2022/01/01 00:07:27;;;;;;;6.05;4.03;;;;;;;9.92;100.00;98802.88;1727886;82;21049;-41
2022/01/01 00:09:52;;;;;;;4.75;4.25;;;;;;;9.94;100.00;98803.63;1727896;83;21174;-41
2022/01/01 00:12:18;;;;;;;5.87;4.25;;;;;;;9.92;100.00;98811.23;1728025;83;20986;-41
2022/01/01 00:14:44;;;;;;;5.67;3.95;;;;;;;9.96;100.00;98817.50;1728074;82;21055;-40
2022/01/01 00:17:10;;;;;;;6.08;4.42;;;;;;;10.01;100.00;98820.34;1727903;83;21463;-41
2022/01/01 00:19:36;;;;;;;6.87;4.53;;;;;;;9.91;100.00;98810.36;1727973;82;21022;-41
2022/01/01 00:22:03;;;;;;;5.75;4.62;;;;;;;9.91;100.00;98805.59;1727897;83;20994;-41
2022/01/01 00:24:29;;;;;;;8.15;5.85;;;;;;;9.94;100.00;98815.44;1728022;82;21037;-41
2022/01/01 00:26:55;;;;;;;6.92;5.87;;;;;;;9.95;100.00;98813.65;1727950;83;21452;-41
2022/01/01 00:29:21;;;;;;;6.72;4.90;;;;;;;9.99;100.00;98819.95;1727883;82;20990;-41
2022/01/01 00:31:48;;;;;;;7.35;5.25;;;;;;;9.95;100.00;98818.45;1727878;83;21034;-42
2022/01/01 00:34:13;;;;;;;6.70;5.05;;;;;;;9.97;100.00;98817.05;1728039;83;20951;-42
2022/01/01 00:36:39;;;;;;;5.67;4.35;;;;;;;9.99;100.00;98819.95;1727850;82;20987;-41
2022/01/01 00:39:06;;;;;;;5.75;4.45;;;;;;;10.04;100.00;98816.19;1727883;83;21002;-40
2022/01/01 00:41:32;;;;;;;6.03;4.78;;;;;;;10.02;100.00;98814.97;1728210;83;20997;-40
2022/01/01 00:43:58;;;;;;;8.28;5.20;;;;;;;10.02;100.00;98820.70;1727984;83;20947;-40
2022/01/01 00:46:25;;;;;;;9.33;5.58;;;;;;;9.99;100.00;98827.83;1684355;83;20975;-40
2022/01/01 00:48:53;;;;;;;7.05;5.53;;;;;;;10.00;100.00;98829.98;1727924;83;21050;-41
2022/01/01 00:51:18;;;;;;;;;;;;;;;10.01;100.00;98835.63;1730119;82;21054;-41
2022/01/01 00:53:44;;;;;;;6.85;4.65;;;;;;;9.93;100.00;98839.16;1727890;83;20104;-41
2022/01/01 00:56:09;;;;;;;6.67;4.67;;;;;;;9.94;100.00;98842.19;1727850;83;20971;-41
2022/01/01 00:58:35;;;;;;;8.43;4.90;;;;;;;9.98;100.00;98843.20;1727881;82;20999;-40
2022/01/01 01:01:01;;;;;;;6.47;4.97;;;;;;;9.97;100.00;98845.47;1727892;83;21039;-41
2022/01/01 01:03:26;;;;;;;7.05;4.83;;;;;;;10.02;100.00;98852.22;1727866;83;20994;-41
2022/01/01 01:05:52;;;;;;;6.03;5.00;;;;;;;9.95;100.00;98859.17;1727824;83;20958;-41
2022/01/01 01:08:18;;;;;;;6.50;4.87;;;;;;;9.99;100.00;98855.41;1727896;83;21163;-41
2022/01/01 01:10:46;;;;;;;6.80;5.10;;;;;;;9.97;100.00;98869.11;1727894;83;21034;-41
2022/01/01 01:13:15;;;;;;;7.37;4.83;;;;;;;10.01;100.00;98865.00;1727858;82;20955;-40
2022/01/01 01:15:40;;;;;;;8.33;4.83;;;;;;;9.97;100.00;98859.92;1727744;81;21059;-40
2022/01/01 01:18:06;;;;;;;6.70;4.97;;;;;;;10.01;100.00;98863.69;1727880;82;20975;-41
2022/01/01 01:20:32;;;;;;;6.80;5.12;;;;;;;10.02;100.00;98871.92;1727832;83;21531;-41
2022/01/01 01:22:58;;;;;;;8.78;5.47;;;;;;;10.04;100.00;98873.98;1727864;83;20998;-41
2022/01/01 01:25:28;;;;;;;6.17;5.00;;;;;;;10.02;100.00;98875.86;1727848;83;20967;-41
2022/01/01 01:27:51;;;;;;;7.33;4.65;;;;;;;10.04;100.00;98876.17;1727374;83;21480;-41
2022/01/01 01:30:18;;;;;;;6.55;5.03;;;;;;;10.05;100.00;98891.45;1728036;83;20970;-41
2022/01/01 01:32:46;;;;;;;6.33;4.50;;;;;;;10.02;100.00;98889.84;1728080;83;21499;-40
2022/01/01 01:35:13;;;;;;;8.38;4.83;;;;;;;9.94;100.00;98889.46;1727928;82;21482;-41
2022/01/01 01:37:39;;;;;;;5.00;4.22;;;;;;;9.94;100.00;98889.46;1727929;83;21045;-40
2022/01/01 01:40:07;;;;;;;5.47;4.25;;;;;;;10.00;100.00;98903.53;1727955;83;21495;-41
2022/01/01 01:42:34;;;;;;;6.47;4.03;;;;;;;9.98;100.00;98900.16;1727859;83;21492;-40
2022/01/01 01:45:04;;;;;;;6.00;4.42;;;;;;;9.92;100.00;98901.37;1728000;83;21042;-41
2022/01/01 01:47:32;;;;;;;4.75;3.72;;;;;;;9.92;100.00;98896.11;1727775;83;21507;-41
2022/01/01 01:49:59;;;;;;;3.87;3.55;;;;;;;9.91;100.00;98894.89;1727791;83;20978;-41
2022/01/01 01:52:32;;;;;;;4.28;3.47;;;;;;;9.85;100.00;98903.97;1727777;83;21050;-41
2022/01/01 01:54:56;;;;;;;4.50;3.92;;;;;;;9.85;100.00;98900.03;1727549;83;20975;-41
2022/01/01 01:57:23;;;;;;;4.97;3.42;;;;;;;9.86;100.00;98895.62;1727698;83;21060;-41
2022/01/01 01:59:52;;;;;;;5.17;3.47;;;;;;;9.81;100.00;98901.16;1727943;83;20994;-40
2022/01/01 02:02:18;;;;;;;4.17;3.65;;;;;;;9.84;100.00;98897.05;1727872;82;20978;-40
2022/01/01 02:04:44;;;;;;;5.30;3.40;;;;;;;9.88;100.00;98899.86;1727835;83;20998;-41
2022/01/01 02:07:11;;;;;;;4.30;3.90;;;;;;;9.94;100.00;98896.86;1728163;83;20986;-41
2022/01/01 02:09:38;;;;;;;4.55;3.77;;;;;;;9.91;100.00;98903.60;1728049;82;21447;-44
2022/01/01 02:12:07;;;;;;;5.10;3.92;;;;;;;9.91;100.00;98902.29;1727949;82;20986;-41
2022/01/01 02:15:05;;;;;;;4.08;3.67;;;;;;;9.89;100.00;98905.48;1727806;82;21047;-41
2022/01/01 02:17:15;;;;;;;4.95;4.00;;;;;;;9.91;100.00;98900.14;1725283;83;20994;-40
2022/01/01 02:20:02;;;;;;;6.10;4.20;;;;;;;9.90;100.00;98903.24;1728077;83;21034;-41
2022/01/01 02:22:47;;;;;;;;;;;;;;;9.90;100.00;98905.87;1730473;83;21006;-40
2022/01/01 02:25:08;;;;;;;5.12;3.65;;;;;;;9.94;100.00;98908.69;1726325;82;20120;-41
2022/01/01 02:27:38;;;;;;;8.13;4.17;;;;;;;9.93;100.00;98909.64;1727797;82;21034;-41
2022/01/01 02:30:10;;;;;;;7.35;4.10;;;;;;;9.93;100.00;98906.14;1727813;83;21123;-41
2022/01/01 02:32:36;;;;;;;6.45;4.12;;;;;;;9.98;100.00;98916.75;1727812;83;21064;-41
2022/01/01 02:35:08;;;;;;;6.87;4.15;;;;;;;9.97;100.00;98923.44;1727843;82;20975;-41
2022/01/01 02:37:38;;;;;;;5.30;4.65;;;;;;;9.97;100.00;98922.12;1727737;82;21038;-41
2022/01/01 02:43:03;;;;;;;5.83;4.62;;;;;;;9.94;100.00;98916.56;1692250;78;21618;-39
2022/01/01 02:45:30;;;;;;;6.53;4.35;;;;;;;9.92;100.00;98918.44;1689356;84;20999;-39
2022/01/01 02:47:57;;;;;;;5.42;4.40;;;;;;;9.93;100.00;98912.70;1689161;84;20989;-40
2022/01/01 02:50:23;;;;;;;5.95;4.35;;;;;;;9.90;100.00;98919.00;1689287;84;21488;-40
2022/01/01 02:52:49;;;;;;;6.15;4.55;;;;;;;9.89;100.00;98925.17;1689070;85;20991;-40
2022/01/01 02:55:14;;;;;;;4.92;4.12;;;;;;;9.85;100.00;98924.14;1689051;84;21374;-40
2022/01/01 02:57:40;;;;;;;7.03;4.53;;;;;;;9.86;100.00;98939.82;1689026;85;21050;-40
2022/01/01 03:00:07;;;;;;;6.40;4.15;;;;;;;9.78;100.00;98936.78;1689162;84;20999;-40
2022/01/01 03:02:33;;;;;;;6.30;4.40;;;;;;;9.82;100.00;98938.77;1689145;85;21007;-40
2022/01/01 03:04:59;;;;;;;6.28;4.00;;;;;;;9.81;100.00;98941.86;1689155;85;21476;-40
2022/01/01 03:07:25;;;;;;;7.65;4.83;;;;;;;9.77;100.00;98941.67;1689162;84;21007;-40
2022/01/01 03:09:50;;;;;;;3.90;3.50;;;;;;;9.78;100.00;98946.80;1689023;85;20968;-40
2022/01/01 03:12:16;;;;;;;6.75;4.70;;;;;;;9.78;100.00;98937.61;1689040;84;21007;-40
2022/01/01 03:14:43;;;;;;;5.95;4.08;;;;;;;9.78;100.00;98945.49;1689184;84;21003;-40
2022/01/01 03:17:09;;;;;;;4.70;3.58;;;;;;;9.79;100.00;98948.98;1688995;83;21042;-41
2022/01/01 03:19:36;;;;;;;9.70;4.20;;;;;;;9.84;100.00;98950.02;1689103;85;21035;-41
2022/01/01 03:22:03;;;;;;;6.20;4.27;;;;;;;9.77;100.00;98940.36;1689371;85;21579;-40
2022/01/01 03:24:29;;;;;;;4.58;3.10;;;;;;;9.75;100.00;98946.13;1689062;83;21460;-41
2022/01/01 03:26:55;;;;;;;3.75;3.27;;;;;;;9.77;100.00;98953.48;1689139;84;20999;-40
2022/01/01 03:29:21;;;;;;;3.90;3.33;;;;;;;9.76;100.00;98946.05;1689064;84;20964;-40
2022/01/01 03:31:47;;;;;;;3.65;3.05;;;;;;;9.74;100.00;98946.61;1659521;83;21011;-40
2022/01/01 03:34:13;;;;;;;4.75;3.17;;;;;;;9.75;100.00;98952.25;1689042;85;21003;-40
2022/01/01 03:36:39;;;;;;;3.67;3.33;;;;;;;9.72;100.00;98963.41;1689009;85;20975;-40
2022/01/01 03:39:07;;;;;;;5.40;3.60;;;;;;;9.66;100.00;98959.79;1689092;84;20991;-40
2022/01/01 03:41:33;;;;;;;4.17;3.15;;;;;;;9.69;100.00;98955.69;1689973;83;20972;-40
2022/01/01 03:43:59;;;;;;;3.47;3.17;;;;;;;9.68;100.00;98967.11;1697061;84;21512;-40
2022/01/01 03:46:25;;;;;;;3.02;2.72;;;;;;;9.66;100.00;98966.35;1696950;84;21022;-40
2022/01/01 03:48:50;;;;;;;5.00;3.02;;;;;;;9.63;100.00;98975.27;1697060;83;21029;-41
2022/01/01 03:51:16;;;;;;;3.17;2.87;;;;;;;9.61;100.00;98984.53;1697061;84;21501;-40
2022/01/01 03:53:42;;;;;;;4.20;2.80;;;;;;;9.64;100.00;98982.66;1696989;84;20991;-40
2022/01/01 03:56:08;;;;;;;2.87;2.47;;;;;;;9.66;100.00;98992.17;1696949;84;21480;-40
2022/01/01 03:58:34;;;;;;;3.30;2.77;;;;;;;9.66;100.00;98992.17;1696980;84;20995;-40
2022/01/01 04:01:00;;;;;;;2.58;2.37;;;;;;;9.63;100.00;98991.02;1696957;83;20995;-40
2022/01/01 04:03:26;;;;;;;2.67;2.47;;;;;;;9.59;100.00;98992.97;1696982;83;20975;-41
2022/01/01 04:05:51;;;;;;;2.40;2.20;;;;;;;9.56;100.00;98994.44;1696939;83;21042;-40
2022/01/01 04:08:17;;;;;;;3.05;2.25;;;;;;;9.62;100.00;98997.19;1697052;84;20994;-40
2022/01/01 04:10:43;;;;;;;2.70;2.42;;;;;;;9.64;100.00;99014.17;1697015;83;21452;-40
2022/01/01 04:13:10;;;;;;;2.62;2.33;;;;;;;9.64;100.00;99015.04;1697040;84;21488;-40
2022/01/01 04:15:40;;;;;;;3.20;2.47;;;;;;;9.57;100.00;99024.19;1697182;83;21018;-40
2022/01/01 04:18:10;;;;;;;2.72;2.50;;;;;;;9.59;100.00;99017.07;1696963;84;21002;-40
2022/01/01 04:20:33;;;;;;;2.67;2.30;;;;;;;9.63;100.00;99019.06;1696397;84;20987;-40
2022/01/01 04:22:59;;;;;;;2.75;2.52;;;;;;;9.64;100.00;99024.23;1697131;84;20999;-40
2022/01/01 04:25:26;;;;;;;2.77;2.45;;;;;;;9.66;100.00;99024.12;1697117;84;20999;-40
2022/01/01 04:27:54;;;;;;;3.62;2.50;;;;;;;9.66;100.00;99024.12;1697201;83;20996;-40
2022/01/01 04:30:21;;;;;;;4.85;2.75;;;;;;;9.65;100.00;99022.44;1667369;84;21442;-41
2022/01/01 04:32:49;;;;;;;2.62;2.17;;;;;;;9.63;100.00;99024.31;1697236;84;20987;-40
2022/01/01 04:35:15;;;;;;;2.35;2.15;;;;;;;9.64;100.00;99026.86;1697225;84;21014;-41
2022/01/01 04:37:41;;;;;;;3.58;2.47;;;;;;;9.64;100.00;99028.61;1667756;84;21002;-40
2022/01/01 04:40:09;;;;;;;2.65;2.45;;;;;;;9.63;100.00;99030.40;1697217;84;20987;-41
2022/01/01 04:42:35;;;;;;;3.08;2.27;;;;;;;9.63;100.00;99037.44;1697193;84;21090;-40
2022/01/01 04:45:01;;;;;;;3.15;2.65;;;;;;;9.64;100.00;99031.23;1697076;84;21043;-41
2022/01/01 04:47:28;;;;;;;4.45;2.40;;;;;;;9.55;100.00;99038.70;1697351;83;21002;-40
2022/01/01 04:49:54;;;;;;;3.40;2.30;;;;;;;9.55;100.00;99038.70;1697367;84;21038;-40
2022/01/01 04:52:20;;;;;;;3.10;2.27;;;;;;;9.57;100.00;99028.97;1697077;84;21411;-41
2022/01/01 04:54:46;;;;;;;2.72;2.37;;;;;;;9.55;100.00;99035.20;1697042;84;20959;-41
2022/01/01 04:57:13;;;;;;;2.40;2.08;;;;;;;9.55;100.00;99042.64;1697096;83;20971;-41
2022/01/01 04:59:41;;;;;;;2.58;2.37;;;;;;;9.58;100.00;99048.18;1697241;83;20986;-41
2022/01/01 05:02:08;;;;;;;3.08;2.05;;;;;;;9.57;100.00;99054.38;1697095;84;20991;-41
2022/01/01 05:04:36;;;;;;;2.42;2.22;;;;;;;9.57;100.00;99056.53;1697034;84;21003;-41
2022/01/01 05:07:02;;;;;;;3.37;2.58;;;;;;;9.56;100.00;99054.81;1697122;84;21029;-40
2022/01/01 05:09:28;;;;;;;2.77;2.00;;;;;;;9.57;100.00;99061.78;1697055;84;20991;-41
2022/01/01 05:11:54;;;;;;;4.55;2.90;;;;;;;9.56;100.00;99064.01;1697085;84;21094;-41
2022/01/01 05:14:20;;;;;;;2.60;2.25;;;;;;;9.55;100.00;99066.27;1697063;84;21034;-41
2022/01/01 05:16:46;;;;;;;3.77;2.40;;;;;;;9.57;100.00;99072.75;1697201;84;20991;-41
2022/01/01 05:19:12;;;;;;;4.33;2.77;;;;;;;9.54;100.00;99065.88;1697082;83;21487;-40
2022/01/01 05:21:38;;;;;;;5.00;3.12;;;;;;;9.62;100.00;99078.57;1697145;84;20975;-40
2022/01/01 05:24:05;;;;;;;5.55;2.90;;;;;;;9.58;100.00;99080.52;1696987;84;20999;-41
2022/01/01 05:26:32;;;;;;;3.08;2.77;;;;;;;9.63;100.00;99085.53;1697062;84;21027;-41
2022/01/01 05:28:59;;;;;;;2.85;2.58;;;;;;;9.58;100.00;99092.33;1697220;84;20987;-41
2022/01/01 05:31:24;;;;;;;3.17;2.52;;;;;;;9.61;100.00;99096.11;1697030;84;20999;-41
2022/01/01 05:33:51;;;;;;;2.67;2.47;;;;;;;9.62;100.00;99096.95;1697068;83;20975;-41
2022/01/01 05:36:18;;;;;;;5.67;2.85;;;;;;;9.66;100.00;99096.32;1697131;83;21500;-41
2022/01/01 05:38:46;;;;;;;3.13;2.43;;;;;;;9.63;100.00;99095.20;1697233;83;20999;-41
2022/01/01 05:41:12;;;;;;;3.15;2.80;;;;;;;9.64;100.00;99091.63;1697041;84;21483;-41
2022/01/01 05:43:38;;;;;;;2.85;2.47;;;;;;;9.60;100.00;99085.69;1684022;84;21032;-41
2022/01/01 05:46:04;;;;;;;2.70;2.50;;;;;;;9.64;100.00;99095.12;1679434;85;20983;-41
2022/01/01 05:48:31;;;;;;;2.70;2.50;;;;;;;9.64;100.00;99100.81;1679304;84;20976;-41
2022/01/01 05:50:56;;;;;;;2.85;2.65;;;;;;;9.59;100.00;99101.91;1679279;84;20995;-41
2022/01/01 05:53:22;;;;;;;3.30;3.00;;;;;;;9.66;100.00;99106.38;1679220;84;21843;-41
2022/01/01 05:55:49;;;;;;;3.20;2.90;;;;;;;9.67;100.00;99113.78;1679246;85;21023;-41
2022/01/01 05:58:15;;;;;;;6.75;2.80;;;;;;;9.68;100.00;99116.77;1679497;84;21011;-42
2022/01/01 06:00:42;;;;;;;3.87;2.60;;;;;;;9.71;100.00;99120.08;1679260;85;21437;-41
2022/01/01 06:03:08;;;;;;;3.13;2.73;;;;;;;9.65;100.00;99111.70;1679533;84;21000;-41
2022/01/01 06:05:34;;;;;;;2.15;2.00;;;;;;;9.69;100.00;99112.75;1679276;84;21035;-41
2022/01/01 06:08:00;;;;;;;5.03;2.25;;;;;;;9.64;100.00;99114.81;1679256;84;21004;-41
2022/01/01 06:10:27;;;;;;;2.50;2.30;;;;;;;9.67;100.00;99118.56;1679380;84;21047;-41
2022/01/01 06:12:54;;;;;;;2.50;2.30;;;;;;;9.63;100.00;99123.60;1679718;84;21847;-41
2022/01/01 06:15:20;;;;;;;3.87;2.00;;;;;;;9.64;100.00;99122.69;1679549;84;20992;-41
2022/01/01 06:17:46;;;;;;;2.00;1.70;;;;;;;9.61;100.00;99125.47;1679472;85;21008;-41
2022/01/01 06:20:13;;;;;;;1.80;1.70;;;;;;;9.56;100.00;99134.89;1679227;84;20996;-42
2022/01/01 06:22:38;;;;;;;2.20;1.90;;;;;;;9.56;100.00;99135.36;1679208;85;20971;-41
2022/01/01 06:25:06;;;;;;;1.92;1.80;;;;;;;9.53;100.00;99133.77;1679315;85;20992;-41
2022/01/01 06:27:32;;;;;;;2.02;1.77;;;;;;;9.53;100.00;99127.20;1679555;84;21039;-41
2022/01/01 06:29:57;;;;;;;1.98;1.65;;;;;;;9.50;100.00;99139.17;1679232;84;21000;-41
2022/01/01 06:32:23;;;;;;;1.75;1.62;;;;;;;9.48;100.00;99142.34;1679261;84;20995;-41
2022/01/01 06:34:49;;;;;;;1.87;1.60;;;;;;;9.40;100.00;99153.69;1679213;85;21007;-41
2022/01/01 06:37:16;;;;;;;2.40;1.75;;;;;;;9.39;100.00;99155.95;1679273;85;21887;-41
2022/01/01 06:39:42;;;;;;;2.60;1.70;;;;;;;9.37;100.00;99157.34;1679208;85;20988;-40
2022/01/01 06:42:08;;;;;;;2.75;1.80;;;;;;;9.38;100.00;99152.45;1679177;84;21031;-40
2022/01/01 06:44:34;;;;;;;2.52;2.15;;;;;;;9.44;100.00;99157.01;1679190;85;21891;-40
2022/01/01 06:47:00;;;;;;;2.47;1.77;;;;;;;9.45;100.00;99152.16;1679208;84;21052;-40
2022/01/01 06:49:25;;;;;;;3.85;2.10;;;;;;;9.41;100.00;99154.09;1679189;84;20991;-40
2022/01/01 06:51:51;;;;;;;3.33;2.87;;;;;;;9.43;100.00;99161.42;1679283;85;21003;-40
2022/01/01 06:54:17;;;;;;;4.80;2.80;;;;;;;9.43;100.00;99164.05;1679226;85;21037;-40
2022/01/01 06:56:43;;;;;;;3.17;2.70;;;;;;;9.47;100.00;99166.88;1679188;85;21347;-40
2022/01/01 06:59:09;;;;;;;2.75;2.55;;;;;;;9.45;100.00;99162.18;1679225;84;21055;-40
2022/01/01 07:01:36;;;;;;;2.67;2.47;;;;;;;9.44;100.00;99169.69;1679189;85;21003;-40
2022/01/01 07:04:03;;;;;;;3.45;3.12;;;;;;;9.43;100.00;99170.60;1679404;84;21052;-41
2022/01/01 07:06:30;;;;;;;4.22;3.40;;;;;;;9.45;100.00;99163.49;1679418;84;21055;-41
2022/01/01 07:08:56;;;;;;;5.25;3.42;;;;;;;9.52;100.00;99175.37;1679465;84;21832;-41
2022/01/01 07:11:22;;;;;;;3.95;3.58;;;;;;;9.50;100.00;99175.08;1679271;85;20996;-41
2022/01/01 07:13:48;;;;;;;5.87;3.50;;;;;;;9.53;100.00;99187.58;1679237;84;20992;-41
2022/01/01 07:16:14;;;;;;;4.60;3.50;;;;;;;9.54;100.00;99178.75;1679216;84;21032;-41
2022/01/01 07:18:39;;;;;;;3.65;3.35;;;;;;;9.50;100.00;99177.23;1679180;85;21000;-41
2022/01/01 07:21:05;;;;;;;10.03;5.22;;;;;;;9.57;100.00;99187.79;1679296;85;20980;-41
2022/01/01 07:23:31;;;;;;;7.45;5.37;;;;;;;9.59;100.00;99190.34;1679287;85;21008;-41
2022/01/01 07:25:57;;;;;;;4.03;3.70;;;;;;;9.62;100.00;99195.41;1679279;84;21455;-41
2022/01/01 07:28:23;;;;;;;4.83;4.33;;;;;;;9.64;100.00;99209.77;1679280;84;21532;-41
2022/01/01 07:30:48;;;;;;;5.65;4.40;;;;;;;9.63;100.00;99203.68;1679290;85;21302;-41
2022/01/01 07:33:15;;;;;;;4.75;3.72;;;;;;;9.65;100.00;99213.63;1679166;85;21036;-41
2022/01/01 07:35:41;;;;;;;6.57;4.07;;;;;;;9.67;100.00;99210.93;1679504;84;21000;-41
2022/01/01 07:38:07;;;;;;;5.22;4.28;;;;;;;9.67;100.00;99217.02;1679286;84;20972;-40
2022/01/01 07:40:34;;;;;;;4.87;3.52;;;;;;;9.70;100.00;99218.19;1679185;85;21101;-41
2022/01/01 07:43:12;;;;;;;2.98;2.77;;;;;;;9.71;100.00;99222.96;1679279;85;21020;-41
2022/01/01 07:45:38;;;;;;;;;;;;;;;9.69;100.00;99222.20;1681723;85;21039;-41
2022/01/01 07:48:05;;;;;;;3.83;2.90;;;;;;;9.70;100.00;99227.84;1679286;84;20440;-41
2022/01/01 07:50:31;;;;;;;3.10;2.80;;;;;;;9.65;100.00;99229.39;1679316;84;21795;-40
2022/01/01 07:52:56;;;;;;;2.60;2.40;;;;;;;9.67;100.00;99223.59;1679275;84;21331;-41
2022/01/01 07:55:22;;;;;;;3.25;2.95;;;;;;;9.66;100.00;99228.47;1679206;84;20984;-40
2022/01/01 07:57:48;;;;;;;6.30;3.70;;;;;;;9.67;100.00;99234.09;1679457;84;20996;-41
2022/01/01 08:00:15;;;;;;;3.22;2.92;;;;;;;9.65;100.00;99241.67;1679309;84;21040;-41
2022/01/01 08:02:43;;;;;;;4.47;3.90;;;;;;;9.72;100.00;99235.17;1679468;84;21016;-41
2022/01/01 08:05:10;;;;;;;3.85;3.17;;;;;;;9.70;100.00;99236.56;1679346;84;21480;-40
2022/01/01 08:07:37;;;;;;;5.12;4.25;;;;;;;9.68;100.00;99233.17;1679504;84;21000;-41
2022/01/01 08:10:04;;;;;;;3.87;3.47;;;;;;;9.67;100.00;99231.94;1679355;84;21020;-41
2022/01/01 08:12:30;;;;;;;4.60;3.67;;;;;;;9.70;100.00;99244.44;1679325;84;21048;-41
2022/01/01 08:14:57;;;;;;;4.40;3.10;;;;;;;9.72;100.00;99245.67;1679397;85;21663;-40
2022/01/01 08:17:24;;;;;;;3.45;2.90;;;;;;;9.77;100.00;99243.66;1679377;85;21500;-40
2022/01/01 08:19:52;;;;;;;3.37;3.08;;;;;;;9.77;100.00;99251.55;1679441;85;21052;-40
2022/01/01 08:22:18;;;;;;;3.98;3.60;;;;;;;9.76;100.00;99240.64;1679344;85;20995;-41
2022/01/01 08:24:46;;;;;;;3.55;3.15;;;;;;;9.76;100.00;99241.48;1679397;85;20992;-41
2022/01/01 08:27:12;;;;;;;2.50;2.30;;;;;;;9.75;100.00;99245.50;1679472;85;20995;-41
2022/01/01 08:29:37;;;;;;;2.72;2.27;;;;;;;9.79;100.00;99240.48;1679298;84;21012;-41
2022/01/01 08:32:04;;;;;;;2.67;2.10;;;;;;;9.77;100.00;99247.61;1679319;84;21061;-41
2022/01/01 08:34:30;;;;;;;4.20;3.00;;;;;;;9.66;100.00;99255.17;1679318;85;21020;-41
2022/01/01 08:36:55;;;;;;;6.60;4.05;;;;;;;9.67;100.00;99259.50;1679289;85;21011;-41
2022/01/01 08:39:21;;;;;;;3.65;2.30;;;;;;;9.66;100.00;99265.23;1679430;84;21007;-41
2022/01/01 08:41:48;;;;;;;1.80;1.70;;;;;;;9.68;100.00;99270.37;1679371;84;20980;-42
2022/01/01 08:44:15;;;;;;;3.02;2.05;;;;;;;9.66;100.00;99274.42;1691275;82;21066;-41
2022/01/01 08:46:42;;;;;;;2.33;2.12;;;;;;;9.59;100.00;99273.88;1697398;83;21014;-41
2022/01/01 08:49:08;;;;;;;2.33;1.75;;;;;;;9.56;100.00;99268.77;1697273;84;20999;-41
2022/01/01 08:51:35;;;;;;;2.15;1.90;;;;;;;9.53;100.00;99283.84;1697084;84;20975;-41
2022/01/01 08:54:01;;;;;;;1.55;1.30;;;;;;;9.55;100.00;99278.91;1697249;84;20987;-42
2022/01/01 08:56:27;;;;;;;1.67;1.47;;;;;;;9.56;100.00;99283.22;1697124;84;21003;-41
2022/01/01 08:58:53;;;;;;;2.02;1.82;;;;;;;9.49;100.00;99286.23;1697179;83;21013;-41
2022/01/01 09:01:20;;;;;;;4.78;2.90;;;;;;;9.55;100.00;99292.03;1697199;83;21590;-43
2022/01/01 09:03:46;;;;;;;2.25;1.80;;;;;;;9.56;100.00;99295.03;1697352;84;20995;-40
2022/01/01 09:06:12;;;;;;;2.25;1.70;;;;;;;9.63;100.00;99297.36;1697098;84;21548;-41
2022/01/01 09:08:42;;;;;;;3.05;2.70;;;;;;;9.59;100.00;99303.23;1697126;84;21488;-41
2022/01/01 09:11:11;;;;;;;3.27;2.90;;;;;;;9.60;100.00;99298.34;1697069;83;21507;-42
2022/01/01 09:13:41;;;;;;;5.58;3.83;;;;;;;9.61;100.00;99303.53;1697176;84;20987;-42
2022/01/01 09:16:06;;;;;;;7.17;4.62;;;;;;;9.67;100.00;99295.80;1696751;84;21031;-41
2022/01/01 09:18:31;;;;;;;5.08;3.95;;;;;;;9.72;100.00;99296.41;1697077;84;21010;-42
2022/01/01 09:20:57;;;;;;;2.37;2.17;;;;;;;9.72;100.00;99300.83;1697068;84;20979;-41
2022/01/01 09:23:23;;;;;;;3.58;3.27;;;;;;;9.71;100.00;99299.95;1697083;83;21054;-41
2022/01/01 09:25:49;;;;;;;4.12;3.72;;;;;;;9.70;100.00;99301.38;1697061;84;20994;-42
2022/01/01 09:28:14;;;;;;;3.00;2.70;;;;;;;9.75;100.00;99304.58;1697050;84;21003;-41
2022/01/01 09:30:40;;;;;;;6.97;5.65;;;;;;;9.75;100.00;99300.20;1697094;84;21010;-41
2022/01/01 09:33:06;;;;;;;6.55;3.67;;;;;;;9.78;100.00;99307.06;1697050;84;21002;-41
2022/01/01 09:35:31;;;;;;;4.85;3.52;;;;;;;9.76;100.00;99304.98;1697014;83;21007;-41
2022/01/01 09:37:57;;;;;;;3.92;3.62;;;;;;;9.82;100.00;99308.59;1697030;83;21030;-41
2022/01/01 09:40:25;;;;;;;3.85;3.10;;;;;;;9.82;100.00;99313.84;1697049;83;21030;-41
2022/01/01 09:42:52;;;;;;;4.90;2.95;;;;;;;9.86;100.00;99312.78;1697089;84;21010;-42
2022/01/01 09:45:20;;;;;;;5.17;3.17;;;;;;;9.89;100.00;99306.50;1696985;83;21500;-41
2022/01/01 09:47:46;;;;;;;;;;;;;;;9.83;100.00;99311.61;1699600;83;20975;-41
2022/01/01 09:50:12;;;;;;;3.37;2.72;;;;;;;9.82;100.00;99315.16;1697280;84;20130;-42
2022/01/01 09:52:38;;;;;;;4.22;3.47;;;;;;;9.88;100.00;99321.42;1696994;84;21446;-42
2022/01/01 09:55:06;;;;;;;5.30;3.97;;;;;;;9.88;100.00;99320.11;1697269;84;20998;-41
2022/01/01 09:57:31;;;;;;;4.97;3.52;;;;;;;9.90;100.00;99328.75;1697123;84;21011;-41
2022/01/01 09:59:57;;;;;;;6.33;3.98;;;;;;;9.91;100.00;99323.88;1697061;84;21527;-41
2022/01/01 10:02:23;;;;;;;8.43;5.70;;;;;;;9.93;100.00;99327.30;1667429;84;21480;-42
2022/01/01 10:04:52;;;;;;;5.97;4.62;;;;;;;9.98;100.00;99332.29;1697053;84;21035;-42
2022/01/01 10:07:27;;;;;;;10.90;6.40;;;;;;;9.98;100.00;99333.60;1697095;84;20986;-42
2022/01/01 10:09:53;;;;;;;8.48;5.78;;;;;;;10.04;100.00;99341.62;1667391;83;21022;-41
2022/01/01 10:12:19;;;;;;;6.55;4.47;;;;;;;10.02;100.00;99333.82;1697051;84;21006;-41
2022/01/01 10:14:47;;;;;;;15.72;9.95;;;;;;;9.94;100.00;99336.02;1697059;84;21042;-41
2022/01/01 10:17:20;;;;;;;10.55;6.65;;;;;;;9.99;100.00;99344.52;1696997;83;21323;-41
2022/01/01 10:19:49;;;;;;;16.85;11.18;;;;;;;9.98;100.00;99338.86;1697008;84;21007;-40
2022/01/01 10:22:24;;;;;;;15.43;8.48;;;;;;;9.96;100.00;99345.50;1697006;84;22366;-41
2022/01/01 10:27:59;;;;;;;14.78;9.00;;;;;;;9.95;100.00;99341.63;1697041;84;21475;-42
2022/01/01 10:30:43;;;;;;;8.10;5.62;;;;;;;9.94;100.00;99346.52;1697058;83;20971;-42
2022/01/01 10:33:16;;;;;;;8.93;5.72;;;;;;;9.97;100.00;99353.78;1697056;84;21472;-41
2022/01/01 10:35:45;;;;;;;9.48;6.70;;;;;;;9.98;100.00;99347.58;1697050;83;20975;-41
2022/01/01 10:38:18;;;;;;;6.45;5.03;;;;;;;9.92;100.00;99350.53;1697000;84;21460;-42
2022/01/01 10:40:44;;;;;;;8.63;6.75;;;;;;;10.02;100.00;99348.74;1696844;84;21011;-41
2022/01/01 10:43:11;;;;;;;9.13;5.72;;;;;;;10.04;100.00;99346.88;1697289;84;21015;-42
2022/01/01 10:45:47;;;;;;;8.43;4.90;;;;;;;10.06;100.00;99359.47;1679686;84;21536;-41
2022/01/01 10:48:38;;;;;;;4.33;3.47;;;;;;;10.07;100.00;99344.94;1679462;85;21455;-41
2022/01/01 10:50:56;;;;;;;7.47;4.47;;;;;;;10.07;100.00;99344.94;1677493;84;21433;-41
2022/01/01 10:53:26;;;;;;;5.55;4.28;;;;;;;10.11;100.00;99345.16;1679450;84;21439;-41
2022/01/01 10:55:58;;;;;;;14.40;4.80;;;;;;;10.19;100.00;99357.92;1679545;85;21036;-41
2022/01/01 10:58:31;;;;;;;7.20;5.80;;;;;;;10.19;100.00;99356.61;1679552;84;21000;-41
2022/01/01 11:01:06;;;;;;;5.90;3.80;;;;;;;10.18;100.00;99362.30;1679555;84;21059;-42
2022/01/01 11:03:43;;;;;;;4.00;2.65;;;;;;;10.22;100.00;99364.78;1679463;85;21012;-42
2022/01/01 11:06:13;;;;;;;3.67;2.50;;;;;;;10.22;100.00;99366.94;1679582;85;21610;-42
2022/01/01 11:08:43;;;;;;;4.90;3.55;;;;;;;10.17;100.00;99368.98;1678698;85;21679;-41
2022/01/01 11:11:15;;;;;;;8.55;4.45;;;;;;;10.19;100.00;99373.69;1679580;85;21008;-42
2022/01/01 11:13:38;;;;;;;4.72;3.17;;;;;;;10.23;100.00;99368.64;1678797;85;21007;-41
2022/01/01 11:16:06;;;;;;;5.80;3.10;;;;;;;10.28;100.00;99371.89;1658185;85;21055;-41
2022/01/01 11:18:34;;;;;;;3.35;2.80;;;;;;;10.25;100.00;99374.67;1679510;84;21043;-40
2022/01/01 11:21:02;;;;;;;3.67;3.20;;;;;;;10.25;100.00;99376.45;1679531;84;21516;-42
2022/01/01 11:23:28;;;;;;;4.10;3.10;;;;;;;10.23;100.00;99379.62;1679651;84;21020;-42
2022/01/01 11:25:54;;;;;;;3.00;2.67;;;;;;;10.17;100.00;99382.12;1679606;84;21016;-42
2022/01/01 11:28:22;;;;;;;6.53;3.08;;;;;;;10.18;100.00;99390.38;1679518;85;21466;-42
2022/01/01 11:30:59;;;;;;;3.25;2.90;;;;;;;10.19;100.00;99386.35;1679566;84;21042;-42
2022/01/01 11:33:39;;;;;;;3.10;2.80;;;;;;;10.15;100.00;99387.89;1679693;84;21043;-41
2022/01/01 11:36:05;;;;;;;7.37;2.50;;;;;;;10.10;100.00;99382.89;1679508;84;21015;-41